Time;durP1;ratioP1;P1;durP2;ratioP2;P2;SDS_P1;SDS_P2;PMS_P1;PMS_P2;Temp;Humidity;BMP_temperature;BMP_pressure;BME280_temperature;BME280_humidity;BME280_pressure;Samples;Min_cycle;Max_cycle;Signal;HPM_P1;HPM_P2
2023/03/09 00:01:40;;;;;;;14.95;9.18;;;;;;;;;;4956716;28;20125;-75
2023/03/09 00:04:06;;;;;;;17.00;10.43;;;;;;;;;;4967088;28;20042;-77
2023/03/09 00:06:33;;;;;;;17.63;10.35;;;;;;;;;;4968685;28;20118;-76
2023/03/09 00:08:59;;;;;;;18.60;10.48;;;;;;;;;;4970558;28;20031;-77
2023/03/09 00:11:25;;;;;;;13.73;9.50;;;;;;;;;;4967851;28;20444;-76
2023/03/09 00:13:52;;;;;;;17.15;10.45;;;;;;;;;;4970137;28;20035;-76
2023/03/09 00:16:23;;;;;;;16.20;9.68;;;;;;;;;;4957903;28;20070;-76
2023/03/09 00:18:51;;;;;;;16.95;10.45;;;;;;;;;;4968386;28;20081;-76
2023/03/09 00:21:36;;;;;;;17.08;10.25;;;;;;;;;;4969585;28;20367;-76
2023/03/09 00:24:07;;;;;;;22.40;10.60;;;;;;;;;;4967656;28;20146;-77
2023/03/09 00:26:36;;;;;;;21.83;10.50;;;;;;;;;;4971127;28;20031;-76
2023/03/09 00:29:02;;;;;;;19.75;11.02;;;;;;;;;;4965322;28;20158;-76
2023/03/09 00:31:28;;;;;;;20.77;11.63;;;;;;;;;;4967209;28;20038;-76
2023/03/09 00:33:54;;;;;;;21.70;12.90;;;;;;;;;;4964274;28;20118;-76
2023/03/09 00:36:20;;;;;;;17.75;12.43;;;;;;;;;;4970994;28;20571;-76
2023/03/09 00:38:50;;;;;;;19.15;11.88;;;;;;;;;;4967232;28;20412;-75
2023/03/09 00:41:16;;;;;;;21.38;13.65;;;;;;;;;;4965755;28;20068;-76
2023/03/09 00:43:42;;;;;;;21.20;13.75;;;;;;;;;;4965523;28;20031;-75
2023/03/09 00:46:08;;;;;;;22.00;13.50;;;;;;;;;;4957333;28;20046;-75
2023/03/09 00:48:36;;;;;;;24.27;14.35;;;;;;;;;;4966893;28;20035;-76
2023/03/09 00:51:02;;;;;;;19.58;13.57;;;;;;;;;;4956264;28;20042;-78
2023/03/09 00:53:28;;;;;;;21.52;13.82;;;;;;;;;;4962559;28;20118;-74
2023/03/09 00:55:54;;;;;;;27.42;17.73;;;;;;;;;;4971760;28;20174;-75
2023/03/09 00:58:20;;;;;;;49.03;24.83;;;;;;;;;;4995859;28;20386;-77
2023/03/09 01:00:46;;;;;;;25.95;14.90;;;;;;;;;;4971341;28;20067;-77
2023/03/09 01:03:12;;;;;;;22.70;14.13;;;;;;;;;;4963705;28;20077;-76
2023/03/09 01:05:38;;;;;;;23.02;14.60;;;;;;;;;;4986974;28;20113;-76
2023/03/09 01:08:04;;;;;;;27.52;14.27;;;;;;;;;;4985400;28;20431;-76
2023/03/09 01:10:30;;;;;;;21.65;14.82;;;;;;;;;;4989424;28;20093;-76
2023/03/09 01:12:56;;;;;;;24.50;14.40;;;;;;;;;;4983181;28;20038;-76
2023/03/09 01:15:23;;;;;;;24.52;14.07;;;;;;;;;;4988371;28;20030;-75
2023/03/09 01:17:49;;;;;;;23.00;14.38;;;;;;;;;;4988538;28;20049;-76
2023/03/09 01:20:15;;;;;;;22.15;13.80;;;;;;;;;;4957543;28;20038;-75
2023/03/09 01:22:41;;;;;;;25.17;14.30;;;;;;;;;;4983596;28;20033;-76
2023/03/09 01:25:07;;;;;;;22.73;14.23;;;;;;;;;;4988290;28;20033;-77
2023/03/09 01:27:33;;;;;;;21.20;12.93;;;;;;;;;;4988576;28;20030;-75
2023/03/09 01:29:59;;;;;;;20.98;14.20;;;;;;;;;;4990368;28;20030;-75
2023/03/09 01:32:25;;;;;;;20.95;13.32;;;;;;;;;;4985110;28;20101;-76
2023/03/09 01:34:52;;;;;;;19.35;13.02;;;;;;;;;;4991139;28;20515;-75
2023/03/09 01:37:18;;;;;;;20.20;13.00;;;;;;;;;;4983295;28;20038;-76
2023/03/09 01:39:44;;;;;;;19.60;13.43;;;;;;;;;;4995827;28;20379;-75
2023/03/09 01:42:11;;;;;;;22.10;13.77;;;;;;;;;;4968140;28;20088;-75
2023/03/09 01:44:37;;;;;;;22.77;13.10;;;;;;;;;;4988223;28;20494;-75
2023/03/09 01:47:03;;;;;;;20.00;12.10;;;;;;;;;;4963386;28;20050;-76
2023/03/09 01:49:32;;;;;;;21.15;12.95;;;;;;;;;;4988787;28;20043;-75
2023/03/09 01:52:04;;;;;;;22.92;14.25;;;;;;;;;;4986742;28;20029;-75
2023/03/09 01:54:48;;;;;;;20.77;12.80;;;;;;;;;;4987829;28;20373;-76
2023/03/09 01:57:27;;;;;;;23.55;13.20;;;;;;;;;;4989034;28;20074;-76
2023/03/09 01:59:55;;;;;;;20.85;13.57;;;;;;;;;;4990796;28;20046;-76
2023/03/09 02:02:23;;;;;;;22.85;12.98;;;;;;;;;;4964573;28;20046;-76
2023/03/09 02:04:51;;;;;;;20.35;12.65;;;;;;;;;;4985012;28;20073;-76
2023/03/09 02:07:19;;;;;;;20.10;12.95;;;;;;;;;;4987551;28;20043;-77
2023/03/09 02:09:58;;;;;;;19.92;12.63;;;;;;;;;;4969367;28;20403;-77
2023/03/09 02:12:25;;;;;;;21.23;12.30;;;;;;;;;;4972863;28;20045;-76
2023/03/09 02:14:51;;;;;;;22.15;13.25;;;;;;;;;;4971238;28;20724;-76
2023/03/09 02:17:18;;;;;;;20.10;12.63;;;;;;;;;;4980856;28;20109;-76
2023/03/09 02:19:44;;;;;;;19.27;11.90;;;;;;;;;;4992993;28;20379;-76
2023/03/09 02:22:10;;;;;;;21.80;13.20;;;;;;;;;;4992995;28;20037;-76
2023/03/09 02:24:39;;;;;;;19.90;12.63;;;;;;;;;;4990011;28;20064;-76
2023/03/09 02:27:22;;;;;;;18.55;11.43;;;;;;;;;;4992240;28;20074;-76
2023/03/09 02:29:48;;;;;;;20.60;11.35;;;;;;;;;;4975214;28;20034;-75
2023/03/09 02:32:15;;;;;;;21.63;12.15;;;;;;;;;;4991002;28;20045;-76
2023/03/09 02:34:41;;;;;;;20.42;12.57;;;;;;;;;;4991044;28;20133;-75
2023/03/09 02:37:27;;;;;;;17.92;11.43;;;;;;;;;;5013597;28;20037;-75
2023/03/09 02:39:56;;;;;;;19.70;10.98;;;;;;;;;;4991878;28;20046;-75
2023/03/09 02:42:22;;;;;;;17.00;11.05;;;;;;;;;;4990973;28;20096;-76
2023/03/09 02:44:48;;;;;;;17.50;10.50;;;;;;;;;;4980637;28;20039;-75
2023/03/09 02:47:18;;;;;;;16.50;10.48;;;;;;;;;;4974410;28;20042;-76
2023/03/09 02:49:44;;;;;;;16.58;11.05;;;;;;;;;;4989704;28;20054;-75
2023/03/09 02:52:10;;;;;;;17.55;10.60;;;;;;;;;;4971852;28;20359;-75
2023/03/09 02:54:36;;;;;;;18.65;10.63;;;;;;;;;;4989282;28;20522;-75
2023/03/09 02:57:02;;;;;;;19.30;9.82;;;;;;;;;;4990596;28;20086;-75
2023/03/09 02:59:28;;;;;;;14.68;10.50;;;;;;;;;;4988370;28;20026;-75
2023/03/09 03:01:54;;;;;;;17.13;9.93;;;;;;;;;;4983545;28;20534;-75
2023/03/09 03:04:20;;;;;;;18.58;11.00;;;;;;;;;;4982699;28;20486;-76
2023/03/09 03:06:46;;;;;;;19.02;10.90;;;;;;;;;;4982513;28;20080;-76
2023/03/09 03:09:13;;;;;;;17.88;11.80;;;;;;;;;;4993434;28;20421;-76
2023/03/09 03:11:39;;;;;;;18.27;11.95;;;;;;;;;;4991883;28;20042;-75
2023/03/09 03:14:05;;;;;;;16.95;10.82;;;;;;;;;;4992451;28;20053;-76
2023/03/09 03:16:31;;;;;;;16.80;9.95;;;;;;;;;;4985666;28;20034;-75
2023/03/09 03:18:57;;;;;;;21.27;12.05;;;;;;;;;;4984420;28;20026;-75
2023/03/09 03:21:23;;;;;;;19.00;12.02;;;;;;;;;;4992534;28;20042;-75
2023/03/09 03:23:50;;;;;;;24.63;13.55;;;;;;;;;;4989979;28;20045;-75
2023/03/09 03:26:16;;;;;;;20.55;12.50;;;;;;;;;;4990369;28;20034;-75
2023/03/09 03:28:42;;;;;;;21.67;11.63;;;;;;;;;;4988511;28;20054;-75
2023/03/09 03:31:08;;;;;;;16.80;11.05;;;;;;;;;;4990515;28;20050;-75
2023/03/09 03:33:34;;;;;;;22.70;12.63;;;;;;;;;;4991555;28;20049;-75
2023/03/09 03:36:00;;;;;;;21.05;12.77;;;;;;;;;;4988199;28;20034;-75
2023/03/09 03:38:26;;;;;;;19.52;13.10;;;;;;;;;;4989419;28;20034;-75
2023/03/09 03:40:52;;;;;;;20.77;12.88;;;;;;;;;;4985841;28;20035;-75
2023/03/09 03:43:18;;;;;;;21.65;13.32;;;;;;;;;;4991728;28;20328;-76
2023/03/09 03:45:44;;;;;;;17.45;12.05;;;;;;;;;;4983949;28;20409;-75
2023/03/09 03:48:11;;;;;;;21.05;12.30;;;;;;;;;;4981315;28;20081;-76
2023/03/09 03:50:37;;;;;;;21.05;12.88;;;;;;;;;;4990836;28;20087;-76
2023/03/09 03:53:03;;;;;;;21.65;13.10;;;;;;;;;;4978831;28;20154;-76
2023/03/09 03:55:29;;;;;;;19.90;12.75;;;;;;;;;;4982995;28;20085;-75
2023/03/09 03:57:55;;;;;;;23.52;13.05;;;;;;;;;;4989514;28;20049;-75
2023/03/09 04:00:22;;;;;;;21.10;14.40;;;;;;;;;;4985781;28;20205;-76
2023/03/09 04:02:48;;;;;;;24.15;13.60;;;;;;;;;;4957992;28;20126;-75
2023/03/09 04:05:14;;;;;;;21.05;12.85;;;;;;;;;;4972999;28;20030;-76
2023/03/09 04:07:41;;;;;;;26.55;14.57;;;;;;;;;;4991325;28;20038;-76
2023/03/09 04:10:07;;;;;;;22.50;12.95;;;;;;;;;;4988094;28;20136;-76
2023/03/09 04:12:34;;;;;;;19.13;12.55;;;;;;;;;;4990558;28;20042;-76
2023/03/09 04:15:00;;;;;;;23.50;14.68;;;;;;;;;;4987794;28;20045;-76
2023/03/09 04:17:26;;;;;;;24.50;13.70;;;;;;;;;;4989033;28;20026;-75
2023/03/09 04:19:52;;;;;;;21.73;13.93;;;;;;;;;;4991729;28;20454;-75
2023/03/09 04:22:19;;;;;;;22.45;14.00;;;;;;;;;;4989520;28;20031;-76
2023/03/09 04:24:49;;;;;;;21.90;13.10;;;;;;;;;;4994438;28;20026;-76
2023/03/09 04:27:15;;;;;;;24.10;13.75;;;;;;;;;;4983821;28;20046;-76
2023/03/09 04:29:41;;;;;;;23.30;13.75;;;;;;;;;;4986672;28;20026;-76
2023/03/09 04:32:07;;;;;;;24.95;15.02;;;;;;;;;;4984701;28;20040;-76
2023/03/09 04:34:33;;;;;;;25.17;14.43;;;;;;;;;;4974049;28;20023;-76
2023/03/09 04:36:59;;;;;;;21.17;13.70;;;;;;;;;;4983962;28;20050;-75
2023/03/09 04:39:25;;;;;;;25.77;14.85;;;;;;;;;;4974207;28;20080;-75
2023/03/09 04:41:52;;;;;;;23.52;14.88;;;;;;;;;;4984608;28;20493;-75
2023/03/09 04:44:18;;;;;;;25.63;15.13;;;;;;;;;;4986914;28;20489;-76
2023/03/09 04:46:43;;;;;;;25.50;15.00;;;;;;;;;;4970337;28;20487;-76
2023/03/09 04:49:09;;;;;;;25.80;13.98;;;;;;;;;;4991377;28;20049;-76
2023/03/09 04:51:35;;;;;;;28.92;15.70;;;;;;;;;;4992921;28;20038;-76
2023/03/09 04:54:01;;;;;;;25.85;15.57;;;;;;;;;;4987177;28;20070;-76
2023/03/09 04:56:27;;;;;;;28.80;15.93;;;;;;;;;;4988805;28;20069;-76
2023/03/09 04:58:55;;;;;;;26.83;15.93;;;;;;;;;;4988232;28;20120;-75
2023/03/09 05:01:21;;;;;;;25.80;15.38;;;;;;;;;;4975689;28;20042;-75
2023/03/09 05:03:47;;;;;;;31.23;16.23;;;;;;;;;;4986544;28;20049;-75
2023/03/09 05:06:14;;;;;;;22.92;14.32;;;;;;;;;;4990763;28;20038;-76
2023/03/09 05:08:40;;;;;;;27.77;16.17;;;;;;;;;;4987576;28;20410;-76
2023/03/09 05:11:06;;;;;;;27.52;15.60;;;;;;;;;;4986862;28;20034;-76
2023/03/09 05:13:32;;;;;;;27.67;16.80;;;;;;;;;;4987691;28;20541;-76
2023/03/09 05:15:58;;;;;;;25.63;14.52;;;;;;;;;;4965783;28;20492;-75
2023/03/09 05:18:24;;;;;;;28.77;16.65;;;;;;;;;;4981221;28;20425;-76
2023/03/09 05:20:50;;;;;;;28.95;16.98;;;;;;;;;;4972967;28;20035;-75
2023/03/09 05:23:16;;;;;;;28.05;15.40;;;;;;;;;;4986817;28;20030;-76
2023/03/09 05:25:42;;;;;;;25.98;16.23;;;;;;;;;;4967838;28;20364;-75
2023/03/09 05:28:09;;;;;;;31.23;18.33;;;;;;;;;;4966309;28;20065;-76
2023/03/09 05:30:35;;;;;;;26.20;16.15;;;;;;;;;;4984463;28;20030;-75
2023/03/09 05:33:01;;;;;;;31.30;17.45;;;;;;;;;;4987633;28;20057;-75
2023/03/09 05:35:27;;;;;;;30.75;17.27;;;;;;;;;;4970150;28;20034;-75
2023/03/09 05:37:53;;;;;;;30.52;16.27;;;;;;;;;;4991228;28;20026;-75
2023/03/09 05:40:22;;;;;;;32.38;17.52;;;;;;;;;;4986584;28;20558;-75
2023/03/09 05:42:48;;;;;;;28.60;18.05;;;;;;;;;;4988756;28;20368;-75
2023/03/09 05:45:14;;;;;;;32.03;17.90;;;;;;;;;;4987361;28;20038;-76
2023/03/09 05:47:40;;;;;;;30.85;18.08;;;;;;;;;;4988472;28;20030;-75
2023/03/09 05:50:06;;;;;;;34.88;17.80;;;;;;;;;;4971767;28;20093;-75
2023/03/09 05:52:32;;;;;;;30.83;18.30;;;;;;;;;;4972736;28;20383;-75
2023/03/09 05:54:58;;;;;;;28.92;17.10;;;;;;;;;;4990210;28;20073;-75
2023/03/09 05:57:24;;;;;;;35.78;19.15;;;;;;;;;;4991750;28;20074;-75
2023/03/09 05:59:50;;;;;;;31.45;18.45;;;;;;;;;;4969394;28;20034;-75
2023/03/09 06:02:16;;;;;;;36.72;19.25;;;;;;;;;;4967860;28;20046;-74
2023/03/09 06:04:42;;;;;;;36.70;19.02;;;;;;;;;;4977327;28;20420;-76
2023/03/09 06:07:09;;;;;;;30.80;17.58;;;;;;;;;;4992964;28;20392;-75
2023/03/09 06:09:35;;;;;;;32.22;18.92;;;;;;;;;;4986710;28;20106;-75
2023/03/09 06:12:01;;;;;;;42.00;24.17;;;;;;;;;;4974521;28;20034;-74
2023/03/09 06:14:27;;;;;;;38.85;21.65;;;;;;;;;;4972873;28;20116;-74
2023/03/09 06:16:54;;;;;;;29.48;18.95;;;;;;;;;;4984850;28;20043;-74
2023/03/09 06:19:20;;;;;;;32.88;18.02;;;;;;;;;;4979984;28;20049;-74
2023/03/09 06:21:46;;;;;;;32.58;19.00;;;;;;;;;;4993118;28;20039;-74
2023/03/09 06:24:12;;;;;;;32.10;18.50;;;;;;;;;;4992857;28;20034;-74
2023/03/09 06:26:38;;;;;;;34.78;17.15;;;;;;;;;;4996183;28;20053;-74
2023/03/09 06:29:04;;;;;;;30.20;17.83;;;;;;;;;;4992249;28;20367;-76
2023/03/09 06:31:31;;;;;;;31.65;18.25;;;;;;;;;;4988294;28;20479;-73
2023/03/09 06:33:58;;;;;;;30.65;17.10;;;;;;;;;;4980140;28;20030;-73
2023/03/09 06:36:24;;;;;;;24.75;16.35;;;;;;;;;;4969404;28;20026;-74
2023/03/09 06:38:50;;;;;;;34.55;17.55;;;;;;;;;;4993159;28;20039;-74
2023/03/09 06:41:16;;;;;;;27.75;16.98;;;;;;;;;;4988644;28;20041;-74
2023/03/09 06:43:45;;;;;;;28.27;16.90;;;;;;;;;;4988786;28;20027;-75
2023/03/09 06:46:11;;;;;;;35.72;20.17;;;;;;;;;;4982066;28;20034;-75
2023/03/09 06:48:37;;;;;;;39.10;20.15;;;;;;;;;;4982941;28;20106;-75
2023/03/09 06:51:03;;;;;;;36.92;21.10;;;;;;;;;;4975410;28;20105;-75
2023/03/09 06:53:29;;;;;;;30.15;18.10;;;;;;;;;;4986849;28;20042;-74
2023/03/09 06:55:58;;;;;;;29.42;17.27;;;;;;;;;;4968467;28;20447;-74
2023/03/09 06:58:24;;;;;;;30.55;17.10;;;;;;;;;;4968038;28;20058;-73
2023/03/09 07:00:50;;;;;;;29.38;17.65;;;;;;;;;;4967638;28;20229;-73
2023/03/09 07:03:18;;;;;;;28.38;16.58;;;;;;;;;;4970806;28;20122;-74
2023/03/09 07:05:44;;;;;;;27.20;16.83;;;;;;;;;;4967852;28;20057;-75
2023/03/09 07:08:10;;;;;;;26.58;16.40;;;;;;;;;;4972848;28;20038;-74
2023/03/09 07:10:36;;;;;;;26.73;16.23;;;;;;;;;;4973057;28;20042;-74
2023/03/09 07:13:03;;;;;;;27.02;16.13;;;;;;;;;;4971109;28;20254;-75
2023/03/09 07:15:29;;;;;;;29.15;16.52;;;;;;;;;;4971610;28;20095;-72
2023/03/09 07:17:55;;;;;;;26.02;16.23;;;;;;;;;;4960876;28;20090;-74
2023/03/09 07:20:23;;;;;;;29.20;16.45;;;;;;;;;;4956279;28;20043;-74
2023/03/09 07:22:49;;;;;;;32.95;18.77;;;;;;;;;;4969979;28;20038;-75
2023/03/09 07:25:16;;;;;;;32.97;18.83;;;;;;;;;;4967566;28;20086;-73
2023/03/09 07:27:42;;;;;;;26.40;16.73;;;;;;;;;;4967355;28;20034;-73
2023/03/09 07:30:13;;;;;;;28.85;16.15;;;;;;;;;;4970227;28;20178;-74
2023/03/09 07:32:39;;;;;;;23.73;14.88;;;;;;;;;;4969699;28;20468;-74
2023/03/09 07:35:05;;;;;;;27.95;15.55;;;;;;;;;;4964626;28;20062;-75
2023/03/09 07:37:31;;;;;;;26.27;16.27;;;;;;;;;;4958415;28;21017;-76
2023/03/09 07:39:57;;;;;;;23.80;15.27;;;;;;;;;;4972448;28;20062;-73
2023/03/09 07:42:23;;;;;;;26.13;15.77;;;;;;;;;;4960592;28;20442;-76
2023/03/09 07:44:49;;;;;;;23.38;14.85;;;;;;;;;;4964013;28;20459;-75
2023/03/09 07:47:17;;;;;;;23.45;14.48;;;;;;;;;;4966195;28;20053;-76
2023/03/09 07:49:43;;;;;;;22.48;14.27;;;;;;;;;;4967769;28;20495;-75
2023/03/09 07:52:09;;;;;;;26.90;15.80;;;;;;;;;;4972744;28;20062;-76
2023/03/09 07:54:36;;;;;;;23.90;13.88;;;;;;;;;;4969817;28;20109;-75
2023/03/09 07:57:02;;;;;;;25.42;15.55;;;;;;;;;;4981317;28;22003;-77
2023/03/09 07:59:28;;;;;;;25.55;15.73;;;;;;;;;;4987753;28;20026;-74
2023/03/09 08:01:54;;;;;;;39.92;22.20;;;;;;;;;;4971335;28;20050;-73
2023/03/09 08:04:20;;;;;;;23.65;16.15;;;;;;;;;;4986969;28;20031;-77
2023/03/09 08:06:46;;;;;;;30.83;15.60;;;;;;;;;;4978322;28;20085;-76
2023/03/09 08:09:14;;;;;;;21.42;13.95;;;;;;;;;;4977964;28;20464;-77
2023/03/09 08:11:41;;;;;;;19.10;13.40;;;;;;;;;;4981210;28;20060;-76
2023/03/09 08:14:07;;;;;;;22.05;13.65;;;;;;;;;;4973026;28;20042;-76
2023/03/09 08:16:33;;;;;;;20.90;13.57;;;;;;;;;;4985215;28;20403;-75
2023/03/09 08:18:59;;;;;;;19.20;13.25;;;;;;;;;;4987509;28;20441;-76
2023/03/09 08:21:25;;;;;;;20.60;12.60;;;;;;;;;;4991874;28;20456;-76
2023/03/09 08:23:51;;;;;;;24.23;13.43;;;;;;;;;;4989009;28;20186;-76
2023/03/09 08:26:18;;;;;;;23.25;14.05;;;;;;;;;;4990176;28;20113;-76
2023/03/09 08:28:44;;;;;;;17.45;12.32;;;;;;;;;;4987120;28;20129;-76
2023/03/09 08:31:11;;;;;;;20.67;11.73;;;;;;;;;;4982027;28;20106;-76
2023/03/09 08:33:37;;;;;;;18.27;11.23;;;;;;;;;;4978494;28;20041;-76
2023/03/09 08:36:13;;;;;;;17.70;11.45;;;;;;;;;;4972024;28;20061;-76
2023/03/09 08:38:40;;;;;;;15.70;11.40;;;;;;;;;;4987782;28;20038;-76
2023/03/09 08:41:06;;;;;;;16.67;11.00;;;;;;;;;;4983493;28;20321;-76
2023/03/09 08:43:32;;;;;;;15.95;10.10;;;;;;;;;;4988344;28;20122;-76
2023/03/09 08:45:58;;;;;;;17.25;10.68;;;;;;;;;;4978575;28;20488;-77
2023/03/09 08:48:24;;;;;;;15.30;10.65;;;;;;;;;;4988591;28;20523;-74
2023/03/09 08:50:50;;;;;;;16.55;10.57;;;;;;;;;;4986508;28;20041;-75
2023/03/09 08:53:18;;;;;;;15.50;10.90;;;;;;;;;;4991267;28;20030;-76
2023/03/09 08:55:44;;;;;;;19.42;10.73;;;;;;;;;;4981934;28;20073;-76
2023/03/09 08:58:10;;;;;;;14.82;10.07;;;;;;;;;;4983272;28;20034;-74
2023/03/09 09:00:36;;;;;;;12.32;9.70;;;;;;;;;;4979051;28;20042;-75
2023/03/09 09:03:02;;;;;;;12.57;9.15;;;;;;;;;;4986177;28;20038;-75
2023/03/09 09:05:28;;;;;;;12.90;8.60;;;;;;;;;;4986550;28;20031;-76
2023/03/09 09:07:54;;;;;;;12.20;9.05;;;;;;;;;;4986910;28;20042;-76
2023/03/09 09:10:20;;;;;;;13.48;9.15;;;;;;;;;;4981153;28;20039;-76
2023/03/09 09:12:46;;;;;;;12.55;9.43;;;;;;;;;;4962222;28;20475;-76
2023/03/09 09:15:13;;;;;;;14.65;9.80;;;;;;;;;;4988139;28;20041;-75
2023/03/09 09:17:40;;;;;;;14.23;8.90;;;;;;;;;;4988574;28;20158;-76
2023/03/09 09:20:07;;;;;;;13.55;9.20;;;;;;;;;;4990413;28;20042;-76
2023/03/09 09:22:34;;;;;;;12.90;9.07;;;;;;;;;;4982062;28;20038;-75
2023/03/09 09:25:00;;;;;;;13.57;9.50;;;;;;;;;;4986943;28;20074;-76
2023/03/09 09:27:26;;;;;;;12.40;8.38;;;;;;;;;;4982405;28;20061;-77
2023/03/09 09:29:52;;;;;;;15.90;10.85;;;;;;;;;;4988560;28;20043;-77
2023/03/09 09:32:18;;;;;;;13.52;9.70;;;;;;;;;;4953929;28;20042;-76
2023/03/09 09:34:44;;;;;;;12.45;9.23;;;;;;;;;;4980783;28;20116;-75
2023/03/09 09:37:11;;;;;;;14.15;9.23;;;;;;;;;;4978895;28;20070;-77
2023/03/09 09:39:37;;;;;;;12.23;8.80;;;;;;;;;;4976251;28;20137;-77
2023/03/09 09:42:05;;;;;;;16.65;9.07;;;;;;;;;;4987061;28;20451;-77
2023/03/09 09:44:38;;;;;;;12.18;8.18;;;;;;;;;;4984556;28;20031;-76
2023/03/09 09:47:05;;;;;;;12.65;8.07;;;;;;;;;;4979097;28;20357;-76
2023/03/09 09:49:34;;;;;;;11.98;8.82;;;;;;;;;;4979514;28;20038;-77
2023/03/09 09:52:00;;;;;;;11.30;8.48;;;;;;;;;;4991871;28;20070;-77
2023/03/09 09:54:32;;;;;;;11.05;7.30;;;;;;;;;;4991489;28;20066;-77
2023/03/09 09:57:00;;;;;;;11.60;8.48;;;;;;;;;;4990075;28;20079;-76
2023/03/09 09:59:26;;;;;;;14.55;9.57;;;;;;;;;;4984400;28;20031;-76
2023/03/09 10:01:55;;;;;;;11.88;7.47;;;;;;;;;;4983976;28;20387;-75
2023/03/09 10:04:24;;;;;;;11.60;7.80;;;;;;;;;;4987168;28;20023;-77
2023/03/09 10:06:51;;;;;;;10.27;7.68;;;;;;;;;;4993361;28;20034;-78
2023/03/09 10:09:29;;;;;;;10.02;7.60;;;;;;;;;;4991420;28;20034;-78
2023/03/09 10:11:57;;;;;;;8.15;6.60;;;;;;;;;;4994361;28;20045;-77
2023/03/09 10:14:42;;;;;;;8.10;6.55;;;;;;;;;;4974146;28;20049;-77
2023/03/09 10:17:14;;;;;;;8.10;5.93;;;;;;;;;;4984136;28;20372;-77
2023/03/09 10:19:41;;;;;;;8.30;6.18;;;;;;;;;;4986901;28;20035;-75
2023/03/09 10:22:13;;;;;;;7.18;5.53;;;;;;;;;;4970827;28;20038;-76
2023/03/09 10:24:39;;;;;;;;;;;;;;;;;;4980759;28;20414;-74
2023/03/09 10:27:16;;;;;;;8.45;5.90;;;;;;;;;;4983273;28;19920;-74
2023/03/09 10:29:46;;;;;;;9.30;6.70;;;;;;;;;;4982624;28;20031;-75
2023/03/09 10:32:16;;;;;;;9.95;7.38;;;;;;;;;;4981476;28;20034;-74
2023/03/09 10:34:54;;;;;;;7.20;5.90;;;;;;;;;;4982082;28;20118;-75
2023/03/09 10:37:23;;;;;;;10.32;5.93;;;;;;;;;;4966680;28;20509;-76
2023/03/09 10:39:49;;;;;;;8.35;6.03;;;;;;;;;;4972848;28;20030;-76
2023/03/09 10:42:26;;;;;;;6.40;5.53;;;;;;;;;;4993290;28;20038;-76
2023/03/09 10:45:05;;;;;;;7.15;5.93;;;;;;;;;;4975623;28;20037;-75
2023/03/09 10:47:51;;;;;;;10.60;7.32;;;;;;;;;;4984634;28;20113;-74
2023/03/09 10:50:18;;;;;;;19.48;12.02;;;;;;;;;;4984639;28;20046;-75
2023/03/09 10:52:44;;;;;;;7.35;5.65;;;;;;;;;;4981973;28;20117;-77
2023/03/09 10:55:28;;;;;;;9.32;6.57;;;;;;;;;;4977503;28;20038;-75
2023/03/09 10:57:59;;;;;;;8.52;5.68;;;;;;;;;;4961708;28;20050;-75
2023/03/09 11:00:25;;;;;;;6.75;5.30;;;;;;;;;;4960809;28;20039;-76
2023/03/09 11:02:56;;;;;;;8.02;4.80;;;;;;;;;;4964049;28;20037;-75
2023/03/09 11:05:23;;;;;;;6.40;5.28;;;;;;;;;;4964682;28;20035;-76
2023/03/09 11:07:53;;;;;;;6.88;4.80;;;;;;;;;;4963555;28;20035;-75
2023/03/09 11:10:28;;;;;;;6.80;5.32;;;;;;;;;;4962434;28;20604;-76
2023/03/09 11:12:54;;;;;;;5.47;4.90;;;;;;;;;;4962212;28;20066;-74
2023/03/09 11:15:25;;;;;;;10.07;5.45;;;;;;;;;;4958951;28;20039;-76
2023/03/09 11:17:51;;;;;;;7.63;5.85;;;;;;;;;;4964065;28;20128;-73
2023/03/09 11:20:29;;;;;;;9.13;5.28;;;;;;;;;;4960916;28;20507;-74
2023/03/09 11:22:59;;;;;;;7.95;6.20;;;;;;;;;;4962977;28;20030;-74
2023/03/09 11:25:37;;;;;;;9.98;5.03;;;;;;;;;;4964192;28;20039;-74
2023/03/09 11:28:10;;;;;;;9.23;5.55;;;;;;;;;;4962711;28;20027;-74
2023/03/09 11:30:36;;;;;;;5.70;5.00;;;;;;;;;;4963609;28;20425;-73
2023/03/09 11:33:02;;;;;;;6.93;5.35;;;;;;;;;;4961872;28;20042;-72
2023/03/09 11:35:28;;;;;;;7.32;4.95;;;;;;;;;;4957112;28;20043;-73
2023/03/09 11:37:58;;;;;;;8.68;5.40;;;;;;;;;;4963515;28;20412;-72
2023/03/09 11:40:27;;;;;;;6.32;5.00;;;;;;;;;;4961455;28;20364;-72
2023/03/09 11:42:56;;;;;;;5.35;4.35;;;;;;;;;;4962952;28;20038;-73
2023/03/09 11:45:23;;;;;;;7.43;4.97;;;;;;;;;;4964095;28;20527;-73
2023/03/09 11:47:55;;;;;;;6.75;5.05;;;;;;;;;;4958626;28;20047;-73
2023/03/09 11:50:24;;;;;;;7.00;4.95;;;;;;;;;;4960541;28;20106;-74
2023/03/09 11:52:52;;;;;;;6.53;4.88;;;;;;;;;;4956174;28;20043;-75
2023/03/09 11:55:22;;;;;;;6.93;4.53;;;;;;;;;;4958227;28;20511;-75
2023/03/09 11:57:49;;;;;;;5.43;4.47;;;;;;;;;;4980410;28;20045;-73
2023/03/09 12:00:17;;;;;;;5.07;4.18;;;;;;;;;;4964882;28;20038;-74
2023/03/09 12:03:01;;;;;;;11.07;6.28;;;;;;;;;;4986300;28;20498;-75
2023/03/09 12:05:31;;;;;;;15.45;7.38;;;;;;;;;;4983512;28;20079;-76
2023/03/09 12:08:03;;;;;;;6.80;5.22;;;;;;;;;;4985955;28;20105;-76
2023/03/09 12:10:36;;;;;;;7.88;5.28;;;;;;;;;;4988825;28;20038;-75
2023/03/09 12:13:04;;;;;;;6.95;4.57;;;;;;;;;;4990052;28;20479;-75
2023/03/09 12:15:41;;;;;;;8.88;4.75;;;;;;;;;;4988735;28;20027;-76
2023/03/09 12:18:17;;;;;;;6.30;4.38;;;;;;;;;;4988230;28;20030;-75
2023/03/09 12:20:49;;;;;;;5.82;4.72;;;;;;;;;;4989943;28;20034;-75
2023/03/09 12:23:34;;;;;;;6.57;4.78;;;;;;;;;;4990442;28;20053;-75
2023/03/09 12:26:00;;;;;;;6.35;4.80;;;;;;;;;;4990454;28;20034;-75
2023/03/09 12:28:26;;;;;;;6.00;4.60;;;;;;;;;;4992184;28;20487;-75
2023/03/09 12:30:53;;;;;;;7.00;4.88;;;;;;;;;;4977366;28;20045;-75
2023/03/09 12:33:38;;;;;;;6.72;5.43;;;;;;;;;;4985951;28;20038;-75
2023/03/09 12:36:20;;;;;;;7.00;5.07;;;;;;;;;;4984935;28;20030;-74
2023/03/09 12:38:46;;;;;;;5.07;4.57;;;;;;;;;;4959085;28;20034;-74
2023/03/09 12:41:26;;;;;;;6.53;5.05;;;;;;;;;;4982208;28;20475;-75
2023/03/09 12:43:52;;;;;;;7.28;5.15;;;;;;;;;;4979354;28;20033;-74
2023/03/09 12:46:48;;;;;;;7.53;5.60;;;7.20;99.90;;;;;;4986189;28;20034;-74
2023/03/09 12:49:15;;;;;;;6.95;5.53;;;;;;;;;;4982994;28;20360;-74
2023/03/09 12:51:44;;;;;;;6.68;5.65;;;;;;;;;;4985740;28;20415;-75
2023/03/09 12:54:20;;;;;;;8.93;6.35;;;;;;;;;;4982590;28;20041;-76
2023/03/09 12:56:46;;;;;;;7.35;5.38;;;;;;;;;;4980557;28;20050;-74
2023/03/09 12:59:16;;;;;;;7.07;5.57;;;;;;;;;;4970596;28;20142;-73
2023/03/09 13:01:42;;;;;;;7.03;5.35;;;;;;;;;;4979552;28;20080;-76
2023/03/09 13:04:12;;;;;;;36.25;19.13;;;;;;;;;;4982701;28;20085;-75
2023/03/09 13:06:57;;;;;;;9.43;6.90;;;;;;;;;;4988494;28;20058;-78
2023/03/09 13:09:26;;;;;;;9.35;6.03;;;;;;;;;;4969825;28;20034;-78
2023/03/09 13:11:59;;;;;;;7.05;5.50;;;;;;;;;;4990222;28;20522;-78
2023/03/09 13:14:25;;;;;;;8.25;6.38;;;;;;;;;;4968816;28;20417;-75
2023/03/09 13:16:54;;;;;;;10.50;5.63;;;;;;;;;;4981767;28;20033;-79
2023/03/09 13:19:20;;;;;;;7.18;5.40;;;;;;;;;;4983620;28;20034;-74
2023/03/09 13:22:00;;;;;;;6.20;5.10;;;;;;;;;;4990326;28;20042;-76
2023/03/09 13:24:44;;;;;;;7.28;5.47;;;;;;;;;;4985290;28;20122;-75
2023/03/09 13:27:15;;;;;;;6.82;5.55;;;;;;;;;;4986580;28;20030;-80
2023/03/09 13:29:48;;;;;;;6.38;5.05;;;;;;;;;;4978703;28;20030;-73
2023/03/09 13:32:22;;;;;;;7.13;5.25;;;;;;;;;;4976146;28;20094;-75
2023/03/09 13:34:48;;;;;;;6.30;4.90;;;;;;;;;;4984380;28;20035;-74
2023/03/09 13:37:16;;;;;;;10.68;5.50;;;;;;;;;;4973384;28;20152;-74
2023/03/09 13:39:56;;;;;;;6.88;5.28;;;;;;;;;;4979907;28;20029;-74
2023/03/09 13:42:22;;;;;;;6.95;6.20;;;;;;;;;;4980609;28;20035;-75
2023/03/09 13:44:50;;;;;;;8.02;6.05;;;;;;;;;;4989917;28;20080;-76
2023/03/09 13:47:35;;;;;;;10.07;6.32;;;;;;;;;;4988808;28;20410;-77
2023/03/09 13:50:01;;;;;;;7.53;5.85;;;;;;;;;;4990838;28;20037;-76
2023/03/09 13:52:28;;;;;;;8.25;6.45;;;;;;;;;;4987094;28;20039;-76
2023/03/09 13:54:55;;;;;;;13.93;7.55;;;;;;;;;;4990973;28;20030;-76
2023/03/09 13:57:23;;;;;;;9.88;6.50;;;;;;;;;;4984234;28;20117;-76
2023/03/09 13:59:49;;;;;;;8.18;6.47;;;;;;;;;;4984580;28;20034;-76
2023/03/09 14:02:15;;;;;;;8.52;6.32;;;;;;;;;;4985080;28;20044;-77
2023/03/09 14:05:02;;;;;;;7.78;6.53;;;;;;;;;;4964540;28;20479;-77
2023/03/09 14:07:32;;;;;;;10.63;6.88;;;;;;;;;;4972403;28;20046;-77
2023/03/09 14:10:00;;;;;;;7.43;6.45;;;;;;;;;;4990860;28;20125;-77
2023/03/09 14:12:34;;;;;;;9.30;7.22;;;;;;;;;;4990381;28;20038;-76
2023/03/09 14:15:01;;;;;;;8.80;6.82;;;;;;;;;;4988317;28;20030;-76
2023/03/09 14:17:27;;;;;;;17.10;9.52;;;;;;;;;;4984016;28;20476;-76
2023/03/09 14:19:54;;;;;;;10.48;7.55;;;;;;;;;;4975016;28;20541;-76
2023/03/09 14:22:26;;;;;;;8.50;6.60;;;;;;;;;;4984997;28;20073;-76
2023/03/09 14:24:52;;;;;;;;;;;;;;;;;;4993968;28;20103;-76
2023/03/09 14:27:25;;;;;;;7.90;6.55;;;;;;;;;;4993737;28;20391;-76
2023/03/09 14:29:53;;;;;;;11.05;7.07;;;;;;;;;;4991570;28;20549;-76
2023/03/09 14:32:22;;;;;;;9.55;7.55;;;;;;;;;;4947003;28;20049;-74